Time;durP1;ratioP1;P1;durP2;ratioP2;P2;SDS_P1;SDS_P2;PMS_P1;PMS_P2;Temp;Humidity;BMP_temperature;BMP_pressure;BME280_temperature;BME280_humidity;BME280_pressure;Samples;Min_cycle;Max_cycle;Signal;HPM_P1;HPM_P2
2021/01/15 00:01:40;;;;;;;7.88;4.22;;;5.60;70.80;;;;;;5114256;28;20020;-61
2021/01/15 00:04:06;;;;;;;9.02;4.70;;;5.50;70.80;;;;;;5112786;28;20728;-61
2021/01/15 00:06:32;;;;;;;6.43;3.90;;;5.60;70.90;;;;;;5113241;28;20367;-61
2021/01/15 00:08:58;;;;;;;8.75;4.38;;;5.60;70.90;;;;;;5110563;28;20043;-61
2021/01/15 00:11:25;;;;;;;11.35;5.72;;;5.60;70.90;;;;;;5113672;28;20034;-61
2021/01/15 00:13:52;;;;;;;8.50;4.60;;;5.60;70.90;;;;;;5113286;28;20031;-61
2021/01/15 00:16:22;;;;;;;11.68;5.05;;;5.70;70.90;;;;;;5098128;28;20020;-61
2021/01/15 00:18:50;;;;;;;7.70;4.43;;;5.70;70.70;;;;;;5093747;28;20028;-61
2021/01/15 00:21:48;;;;;;;10.15;4.57;;;5.60;70.40;;;;;;5094380;28;20020;-61
2021/01/15 00:24:18;;;;;;;8.05;4.43;;;5.60;70.20;;;;;;5093954;28;20145;-61
2021/01/15 00:26:44;;;;;;;11.48;5.78;;;5.60;69.90;;;;;;5092837;28;20066;-61
2021/01/15 00:29:14;;;;;;;9.95;4.82;;;5.60;69.50;;;;;;5093940;28;20061;-61
2021/01/15 00:31:42;;;;;;;9.68;4.93;;;5.50;69.20;;;;;;5094109;28;20024;-61
2021/01/15 00:34:10;;;;;;;8.85;4.30;;;5.50;69.20;;;;;;5093372;28;20032;-61
2021/01/15 00:36:37;;;;;;;8.80;4.68;;;5.50;68.90;;;;;;5093862;28;20052;-61
2021/01/15 00:39:05;;;;;;;9.23;5.00;;;5.50;68.90;;;;;;5094061;28;20533;-61
2021/01/15 00:41:37;;;;;;;8.40;4.57;;;5.50;68.70;;;;;;5093440;28;20392;-61
2021/01/15 00:44:04;;;;;;;7.28;3.40;;;5.50;68.40;;;;;;5093978;28;20024;-61
2021/01/15 00:46:31;;;;;;;7.10;3.33;;;5.50;68.10;;;;;;5093969;28;20484;-61
2021/01/15 00:49:08;;;;;;;8.65;4.38;;;5.50;67.80;;;;;;5092973;28;20165;-61
2021/01/15 00:51:36;;;;;;;6.63;3.70;;;5.50;67.60;;;;;;5092512;28;20388;-61
2021/01/15 00:54:06;;;;;;;5.70;3.30;;;5.50;67.40;;;;;;5092867;28;20548;-61
2021/01/15 00:56:32;;;;;;;5.30;3.80;;;5.50;67.20;;;;;;5092766;28;20429;-61
2021/01/15 00:58:59;;;;;;;7.43;3.80;;;5.50;67.10;;;;;;5092220;28;20035;-61
2021/01/15 01:01:37;;;;;;;7.40;4.05;;;5.50;67.00;;;;;;5095879;28;20024;-61
2021/01/15 01:04:07;;;;;;;6.93;3.97;;;5.50;66.90;;;;;;5107343;28;20035;-61
2021/01/15 01:06:33;;;;;;;6.30;4.10;;;5.60;66.90;;;;;;5095648;28;20031;-61
2021/01/15 01:09:02;;;;;;;6.38;3.90;;;5.60;67.00;;;;;;5103459;27;20036;-61
2021/01/15 01:11:30;;;;;;;7.93;4.53;;;5.60;67.10;;;;;;5093600;28;20036;-61
2021/01/15 01:13:57;;;;;;;9.85;4.70;;;5.60;66.90;;;;;;5093366;28;20036;-61
2021/01/15 01:16:24;;;;;;;8.43;4.65;;;5.60;67.00;;;;;;5106612;28;20094;-61
2021/01/15 01:18:50;;;;;;;6.55;4.18;;;5.70;67.00;;;;;;5093223;28;20032;-60
2021/01/15 01:21:16;;;;;;;7.72;3.85;;;5.70;66.90;;;;;;5093202;28;20094;-61
2021/01/15 01:23:43;;;;;;;8.93;4.85;;;5.70;66.80;;;;;;5092401;28;20063;-61
2021/01/15 01:26:13;;;;;;;15.32;4.97;;;5.70;66.70;;;;;;5093424;28;20024;-61
2021/01/15 01:28:42;;;;;;;7.13;4.60;;;5.70;66.60;;;;;;5093011;28;20040;-61
2021/01/15 01:31:15;;;;;;;8.10;4.32;;;5.70;66.70;;;;;;5091949;28;20046;-60
2021/01/15 01:33:41;;;;;;;9.15;4.63;;;5.70;66.60;;;;;;5092555;28;20133;-61
2021/01/15 01:36:08;;;;;;;7.95;4.70;;;5.70;66.70;;;;;;5092178;28;20044;-61
2021/01/15 01:38:35;;;;;;;6.97;4.25;;;5.70;66.80;;;;;;5092902;28;20039;-61
2021/01/15 01:41:00;;;;;;;8.38;4.85;;;5.70;66.80;;;;;;5092895;28;20035;-61
2021/01/15 01:43:26;;;;;;;8.30;4.55;;;5.70;66.90;;;;;;5092129;28;20036;-61
2021/01/15 01:45:53;;;;;;;8.57;4.43;;;5.70;66.90;;;;;;5093097;28;20028;-61
2021/01/15 01:48:20;;;;;;;9.38;4.70;;;5.70;66.80;;;;;;5093024;28;20044;-61
2021/01/15 01:50:52;;;;;;;8.20;4.45;;;5.70;66.90;;;;;;5092132;28;20020;-61
2021/01/15 01:53:20;;;;;;;8.95;4.50;;;5.70;66.80;;;;;;5097858;28;20035;-61
2021/01/15 01:55:47;;;;;;;7.72;4.30;;;5.70;66.70;;;;;;5093701;28;20024;-61
2021/01/15 01:58:15;;;;;;;7.00;4.38;;;5.80;66.60;;;;;;5095536;28;20483;-61
2021/01/15 02:00:43;;;;;;;6.22;3.88;;;5.70;66.60;;;;;;5106024;28;20027;-61
2021/01/15 02:03:09;;;;;;;11.48;4.65;;;5.70;66.60;;;;;;5100601;28;20020;-61
2021/01/15 02:05:35;;;;;;;8.32;4.85;;;5.80;66.60;;;;;;5106217;28;20073;-61
2021/01/15 02:08:01;;;;;;;6.60;4.53;;;5.80;66.70;;;;;;5092567;28;20036;-61
2021/01/15 02:10:32;;;;;;;8.32;4.78;;;5.90;66.70;;;;;;5092654;28;20032;-61
2021/01/15 02:13:04;;;;;;;9.18;4.70;;;5.80;66.60;;;;;;5100984;28;20023;-61
2021/01/15 02:15:38;;;;;;;10.32;4.63;;;5.80;66.70;;;;;;5114221;28;20040;-61
2021/01/15 02:18:15;;;;;;;7.97;4.40;;;5.90;66.80;;;;;;5096748;28;20028;-61
2021/01/15 02:21:10;;;;;;;8.88;4.60;;;5.90;66.70;;;;;;5096273;28;20024;-62
2021/01/15 02:23:44;;;;;;;12.88;5.07;;;5.90;66.80;;;;;;5055092;28;20036;-61
2021/01/15 02:26:37;;;;;;;6.53;4.45;;;6.00;66.80;;;;;;5095955;28;20042;-61
2021/01/15 02:29:15;;;;;;;13.25;5.28;;;6.00;66.80;;;;;;5096792;28;20399;-61
2021/01/15 02:31:47;;;;;;;9.00;4.60;;;6.00;66.80;;;;;;5108678;28;20032;-61
2021/01/15 02:34:54;;;;;;;8.02;4.50;;;6.00;66.90;;;;;;5095736;28;20043;-61
2021/01/15 02:37:28;;;;;;;9.40;5.28;;;6.00;67.00;;;;;;5058202;28;20813;-61
2021/01/15 02:40:30;;;;;;;13.82;4.60;;;6.00;67.00;;;;;;5095945;28;20016;-61
2021/01/15 02:42:56;;;;;;;8.52;4.60;;;6.00;67.10;;;;;;5051439;28;20044;-60
2021/01/15 02:45:23;;;;;;;8.18;4.15;;;6.00;67.00;;;;;;5112038;28;20038;-61
2021/01/15 02:47:50;;;;;;;7.88;4.88;;;6.10;67.10;;;;;;5111075;28;20115;-61
2021/01/15 02:50:19;;;;;;;9.18;4.50;;;6.10;67.10;;;;;;5111193;28;20040;-61
2021/01/15 02:52:45;;;;;;;8.52;5.00;;;6.10;67.00;;;;;;5113044;28;20034;-61
2021/01/15 02:55:12;;;;;;;9.63;4.47;;;6.10;67.00;;;;;;5108765;28;20119;-61
2021/01/15 02:57:38;;;;;;;8.65;4.97;;;6.10;67.00;;;;;;5113004;28;20063;-61
2021/01/15 03:00:09;;;;;;;8.32;4.60;;;6.10;66.90;;;;;;5109166;28;20024;-60
2021/01/15 03:03:00;;;;;;;7.28;4.43;;;6.20;67.10;;;;;;5104782;28;20048;-60
2021/01/15 03:05:49;;;;;;;7.22;3.85;;;6.10;67.10;;;;;;5110092;28;20035;-61
2021/01/15 03:08:18;;;;;;;7.45;4.07;;;6.20;67.10;;;;;;5095026;28;20028;-61
2021/01/15 03:10:45;;;;;;;9.50;4.32;;;6.10;67.10;;;;;;5095858;28;20028;-60
2021/01/15 03:13:11;;;;;;;8.68;4.53;;;6.10;67.10;;;;;;5095769;28;20437;-60
2021/01/15 03:15:39;;;;;;;7.68;4.35;;;6.10;67.10;;;;;;5094885;28;20036;-61
2021/01/15 03:18:06;;;;;;;8.25;4.85;;;6.10;67.10;;;;;;5095472;28;20552;-61
2021/01/15 03:20:32;;;;;;;10.93;4.72;;;6.20;67.20;;;;;;5095345;28;20028;-61
2021/01/15 03:22:58;;;;;;;9.45;4.32;;;6.20;67.30;;;;;;5094592;28;20024;-61
2021/01/15 03:25:24;;;;;;;9.43;4.53;;;6.20;67.30;;;;;;5097037;28;20036;-61
2021/01/15 03:27:54;;;;;;;8.13;4.35;;;6.20;67.40;;;;;;5108201;28;20031;-60
2021/01/15 03:30:22;;;;;;;11.40;4.55;;;6.20;67.50;;;;;;5094178;28;20024;-61
2021/01/15 03:32:50;;;;;;;9.68;4.35;;;6.20;67.50;;;;;;5107723;28;20032;-60
2021/01/15 03:35:25;;;;;;;10.70;4.68;;;6.20;67.50;;;;;;5103039;28;20032;-60
2021/01/15 03:38:05;;;;;;;9.90;4.85;;;6.20;67.60;;;;;;5096152;28;20055;-61
2021/01/15 03:40:36;;;;;;;7.28;4.72;;;6.20;67.70;;;;;;5098630;28;20795;-60
2021/01/15 03:43:13;;;;;;;11.77;4.57;;;6.20;67.70;;;;;;5096237;28;20028;-61
2021/01/15 03:45:40;;;;;;;10.35;5.10;;;6.30;67.90;;;;;;5098611;28;20050;-60
2021/01/15 03:48:07;;;;;;;7.72;3.83;;;6.20;67.90;;;;;;5096914;28;20028;-61
2021/01/15 03:50:33;;;;;;;9.65;4.50;;;6.20;67.90;;;;;;5096569;28;20032;-61
2021/01/15 03:52:59;;;;;;;10.00;4.82;;;6.30;67.90;;;;;;5106154;28;20020;-61
2021/01/15 03:55:24;;;;;;;7.88;4.82;;;6.20;67.90;;;;;;5112466;28;20393;-60
2021/01/15 03:57:50;;;;;;;7.72;4.32;;;6.20;67.90;;;;;;5106665;28;20023;-61
2021/01/15 04:00:16;;;;;;;9.18;4.78;;;6.30;67.90;;;;;;5107368;28;20035;-60
2021/01/15 04:02:42;;;;;;;7.93;4.70;;;6.30;67.90;;;;;;5099753;28;20032;-61
2021/01/15 04:05:12;;;;;;;9.45;4.97;;;6.30;67.90;;;;;;5107934;28;20184;-61
2021/01/15 04:07:38;;;;;;;9.07;4.72;;;6.20;67.80;;;;;;5094533;28;20073;-61
2021/01/15 04:10:09;;;;;;;9.55;4.38;;;6.20;68.00;;;;;;5094337;28;20040;-60
2021/01/15 04:12:35;;;;;;;10.65;4.78;;;6.20;67.70;;;;;;5092796;28;20024;-60
2021/01/15 04:15:01;;;;;;;6.93;3.88;;;6.30;67.90;;;;;;5094249;28;20029;-61
2021/01/15 04:17:26;;;;;;;9.57;4.28;;;6.30;68.00;;;;;;5094586;28;20024;-61
2021/01/15 04:19:52;;;;;;;6.93;3.88;;;6.30;68.60;;;;;;5093869;28;20039;-61
2021/01/15 04:22:17;;;;;;;7.43;4.38;;;6.30;68.10;;;;;;5094385;28;20078;-60
2021/01/15 04:24:43;;;;;;;10.85;5.20;;;6.30;68.20;;;;;;5094465;28;20110;-61
2021/01/15 04:27:09;;;;;;;7.93;4.22;;;6.30;68.20;;;;;;5093500;28;20484;-61
2021/01/15 04:29:35;;;;;;;10.57;4.90;;;6.20;68.20;;;;;;5094146;28;20126;-61
2021/01/15 04:32:01;;;;;;;7.90;4.32;;;6.20;68.30;;;;;;5093495;28;20028;-61
2021/01/15 04:34:27;;;;;;;9.48;4.45;;;6.30;68.50;;;;;;5094120;28;20036;-61
2021/01/15 04:36:52;;;;;;;7.80;4.72;;;6.20;68.50;;;;;;5093391;28;20086;-61
2021/01/15 04:39:19;;;;;;;6.55;3.83;;;6.30;68.60;;;;;;5093361;28;20042;-61
2021/01/15 04:41:47;;;;;;;7.03;4.32;;;6.30;68.70;;;;;;5093986;28;20471;-61
2021/01/15 04:44:13;;;;;;;8.90;4.20;;;6.20;68.70;;;;;;5093813;28;20036;-61
2021/01/15 04:46:40;;;;;;;8.77;4.13;;;6.30;68.80;;;;;;5093438;28;20036;-61
2021/01/15 04:49:09;;;;;;;8.32;4.25;;;6.30;68.90;;;;;;5093847;28;20093;-58
2021/01/15 04:51:37;;;;;;;9.88;4.50;;;6.30;69.00;;;;;;5093927;28;20036;-58
2021/01/15 04:54:06;;;;;;;11.30;5.10;;;6.30;69.00;;;;;;5093159;28;20398;-58
2021/01/15 04:56:48;;;;;;;8.27;4.35;;;6.20;69.10;;;;;;5093705;28;20032;-61
2021/01/15 04:59:15;;;;;;;8.20;4.45;;;6.20;69.30;;;;;;5108303;28;20024;-61
2021/01/15 05:01:48;;;;;;;9.23;4.30;;;6.20;69.30;;;;;;5090845;28;20043;-61
2021/01/15 05:04:16;;;;;;;8.93;4.40;;;6.30;69.50;;;;;;5102940;28;20497;-61
2021/01/15 05:06:49;;;;;;;8.50;4.63;;;6.30;69.60;;;;;;5097715;28;20043;-61
2021/01/15 05:09:23;;;;;;;12.23;4.95;;;6.20;69.70;;;;;;5100356;28;20040;-61
2021/01/15 05:11:50;;;;;;;8.75;4.88;;;6.20;69.80;;;;;;5093463;28;20032;-61
2021/01/15 05:14:18;;;;;;;9.50;5.15;;;6.20;69.80;;;;;;5092812;28;20119;-61
2021/01/15 05:16:47;;;;;;;8.13;4.43;;;6.20;69.80;;;;;;5093229;28;20432;-61
2021/01/15 05:19:14;;;;;;;10.00;3.90;;;6.20;69.80;;;;;;5093359;28;20088;-61
2021/01/15 05:21:41;;;;;;;13.50;4.63;;;6.20;69.80;;;;;;5092577;28;20122;-61
2021/01/15 05:24:08;;;;;;;9.60;4.90;;;6.20;69.90;;;;;;5093255;28;20043;-61
2021/01/15 05:26:39;;;;;;;6.93;4.22;;;6.20;69.90;;;;;;5093293;28;20168;-61
2021/01/15 05:29:06;;;;;;;6.75;3.78;;;6.20;69.70;;;;;;5092447;28;20040;-61
2021/01/15 05:31:54;;;;;;;9.80;4.25;;;6.20;69.80;;;;;;5092362;28;20032;-62
2021/01/15 05:34:22;;;;;;;7.70;3.72;;;6.20;69.90;;;;;;5092838;28;20379;-61
2021/01/15 05:36:48;;;;;;;6.70;3.45;;;6.20;69.90;;;;;;5092207;28;20052;-61
2021/01/15 05:39:18;;;;;;;8.25;3.92;;;6.10;70.20;;;;;;5092879;28;20502;-61
2021/01/15 05:41:45;;;;;;;10.38;4.20;;;6.10;70.60;;;;;;5093022;28;20054;-61
2021/01/15 05:44:23;;;;;;;5.60;3.22;;;6.00;71.10;;;;;;5092280;28;20064;-61
2021/01/15 05:46:49;;;;;;;3.60;2.50;;;6.00;71.50;;;;;;5092928;28;20107;-60
2021/01/15 05:49:15;;;;;;;7.22;2.65;;;5.90;71.80;;;;;;5091694;28;20506;-61
2021/01/15 05:51:42;;;;;;;4.45;2.40;;;5.80;72.00;;;;;;5092703;28;20028;-61
2021/01/15 05:54:09;;;;;;;4.47;3.08;;;5.80;72.30;;;;;;5092692;28;20061;-61
2021/01/15 05:56:46;;;;;;;8.48;3.22;;;5.80;72.60;;;;;;5092237;28;20443;-61
2021/01/15 05:59:13;;;;;;;4.38;2.53;;;5.80;72.90;;;;;;5092897;28;20034;-61
2021/01/15 06:01:47;;;;;;;4.25;2.80;;;5.70;72.90;;;;;;5092505;28;20024;-61
2021/01/15 06:04:16;;;;;;;5.03;2.63;;;5.70;73.10;;;;;;5092213;28;20028;-60
2021/01/15 06:06:45;;;;;;;3.60;2.53;;;5.70;73.10;;;;;;5092610;28;20115;-60
2021/01/15 06:09:12;;;;;;;5.15;2.80;;;5.70;73.20;;;;;;5092665;28;20063;-60
2021/01/15 06:11:41;;;;;;;7.80;3.45;;;5.70;73.50;;;;;;5091865;28;20063;-61
2021/01/15 06:14:19;;;;;;;5.47;2.90;;;5.70;73.70;;;;;;5095861;28;20028;-61
2021/01/15 06:16:45;;;;;;;5.13;2.88;;;5.70;73.90;;;;;;5098989;28;20055;-61
2021/01/15 06:19:11;;;;;;;7.30;3.28;;;5.60;73.90;;;;;;5101247;28;20050;-61
2021/01/15 06:21:36;;;;;;;5.28;2.90;;;5.60;74.10;;;;;;5111539;28;20032;-61
2021/01/15 06:24:03;;;;;;;7.53;3.05;;;5.60;74.30;;;;;;5106510;28;20034;-61
2021/01/15 06:26:36;;;;;;;4.90;3.00;;;5.50;74.40;;;;;;5093715;28;20111;-61
2021/01/15 06:29:12;;;;;;;4.40;3.15;;;5.60;74.70;;;;;;5103503;28;20036;-61
2021/01/15 06:31:49;;;;;;;5.82;2.90;;;5.50;74.70;;;;;;5101260;28;20448;-61
2021/01/15 06:34:19;;;;;;;4.22;2.83;;;5.50;74.70;;;;;;5099215;28;20106;-60
2021/01/15 06:37:04;;;;;;;6.32;3.00;;;5.50;74.70;;;;;;5104273;28;20060;-60
2021/01/15 06:39:30;;;;;;;6.30;3.17;;;5.50;74.70;;;;;;5106133;28;20031;-60
2021/01/15 06:42:02;;;;;;;3.63;2.45;;;5.60;75.30;;;;;;5108502;28;20385;-61
2021/01/15 06:44:27;;;;;;;5.18;3.15;;;5.60;74.80;;;;;;5109178;28;20026;-61
2021/01/15 06:46:54;;;;;;;6.28;2.88;;;5.60;74.80;;;;;;5108460;28;20032;-66
2021/01/15 06:49:31;;;;;;;5.47;3.20;;;5.60;74.80;;;;;;5109362;28;20565;-61
2021/01/15 06:51:58;;;;;;;6.47;2.90;;;5.60;74.80;;;;;;5107950;28;20458;-60
2021/01/15 06:54:34;;;;;;;6.93;2.60;;;5.60;74.90;;;;;;5105093;28;20096;-61
2021/01/15 06:57:19;;;;;;;4.95;3.03;;;5.70;74.90;;;;;;5107873;28;20572;-62
2021/01/15 06:59:54;;;;;;;4.40;3.08;;;5.70;75.00;;;;;;5093019;28;20417;-61
2021/01/15 07:02:41;;;;;;;5.65;3.08;;;5.70;74.90;;;;;;5097578;28;20032;-61
2021/01/15 07:05:12;;;;;;;5.65;2.58;;;5.70;74.90;;;;;;5104511;28;20043;-61
2021/01/15 07:07:40;;;;;;;5.78;2.95;;;5.70;74.90;;;;;;5111289;28;20027;-60
2021/01/15 07:10:07;;;;;;;6.38;3.35;;;5.70;74.80;;;;;;5109811;28;20079;-62
2021/01/15 07:12:41;;;;;;;5.45;2.58;;;5.80;74.90;;;;;;5110101;28;20068;-62
2021/01/15 07:15:20;;;;;;;5.25;3.10;;;5.80;75.00;;;;;;5110972;27;20072;-62
2021/01/15 07:17:47;;;;;;;6.47;2.75;;;5.80;74.90;;;;;;5113071;28;20058;-61
2021/01/15 07:20:19;;;;;;;5.38;3.22;;;5.80;74.90;;;;;;5112392;28;20023;-62
2021/01/15 07:22:49;;;;;;;8.02;2.97;;;5.80;74.90;;;;;;5109090;28;20073;-61
2021/01/15 07:25:15;;;;;;;5.40;3.20;;;5.80;74.90;;;;;;5107118;28;20123;-60
2021/01/15 07:27:41;;;;;;;7.18;4.05;;;5.80;74.90;;;;;;5109589;28;20111;-60
2021/01/15 07:30:26;;;;;;;5.60;2.97;;;5.80;74.80;;;;;;5109758;28;20088;-62
2021/01/15 07:32:54;;;;;;;6.15;2.97;;;5.80;74.80;;;;;;5109923;28;20032;-61
2021/01/15 07:35:23;;;;;;;5.90;2.70;;;5.90;74.80;;;;;;5097873;28;20032;-61
2021/01/15 07:37:49;;;;;;;5.35;3.47;;;5.90;74.80;;;;;;5106890;28;20108;-61
2021/01/15 07:40:22;;;;;;;8.80;3.33;;;5.80;74.80;;;;;;5108702;28;20035;-61
2021/01/15 07:42:49;;;;;;;6.80;3.87;;;5.80;75.40;;;;;;5111143;28;20036;-61
2021/01/15 07:45:24;;;;;;;7.18;3.72;;;5.80;74.90;;;;;;5112461;28;20051;-61
2021/01/15 07:48:01;;;;;;;8.70;4.13;;;5.80;74.90;;;;;;5111266;28;20028;-62
2021/01/15 07:50:32;;;;;;;6.05;2.97;;;5.80;74.90;;;;;;5110665;28;20112;-61
2021/01/15 07:53:10;;;;;;;6.75;3.15;;;5.80;75.00;;;;;;5109220;28;20020;-62
2021/01/15 07:55:46;;;;;;;7.18;3.55;;;5.70;75.00;;;;;;5113044;28;20027;-61
2021/01/15 07:58:16;;;;;;;4.50;2.58;;;5.60;74.90;;;;;;5106121;28;20031;-61
2021/01/15 08:00:42;;;;;;;4.82;2.60;;;5.60;75.00;;;;;;5093585;28;20135;-61
2021/01/15 08:03:12;;;;;;;5.53;2.80;;;5.60;75.00;;;;;;5098193;28;20443;-61
2021/01/15 08:05:38;;;;;;;7.38;2.85;;;5.50;74.60;;;;;;5104838;28;20292;-61
2021/01/15 08:08:17;;;;;;;4.55;2.20;;;5.50;74.50;;;;;;5111817;27;20475;-61
2021/01/15 08:10:45;;;;;;;7.28;2.90;;;5.50;74.20;;;;;;5110837;28;20043;-61
2021/01/15 08:13:27;;;;;;;3.65;2.20;;;5.40;74.10;;;;;;5109621;28;20098;-61
2021/01/15 08:15:55;;;;;;;6.88;2.38;;;5.40;74.10;;;;;;5110580;28;20032;-61
2021/01/15 08:18:21;;;;;;;6.38;2.40;;;5.40;73.80;;;;;;5110134;28;20057;-61
2021/01/15 08:20:51;;;;;;;5.22;2.92;;;5.40;73.80;;;;;;5108866;28;20498;-61
2021/01/15 08:23:21;;;;;;;6.30;3.20;;;5.40;73.40;;;;;;5085341;28;20611;-63
2021/01/15 08:25:49;;;;;;;5.55;2.80;;;5.40;73.60;;;;;;5100221;28;20023;-62
2021/01/15 08:28:15;;;;;;;6.68;2.80;;;5.40;73.60;;;;;;5093262;28;20509;-61
2021/01/15 08:31:06;;;;;;;4.50;2.63;;;5.40;73.50;;;;;;5100719;28;20020;-61
2021/01/15 08:33:33;;;;;;;6.38;2.80;;;5.40;73.40;;;;;;5101290;28;20027;-61
2021/01/15 08:36:01;;;;;;;4.45;2.35;;;5.40;72.90;;;;;;5102869;28;20024;-61
2021/01/15 08:38:37;;;;;;;2.63;1.92;;;5.40;72.70;;;;;;5101010;28;20081;-62
2021/01/15 08:41:14;;;;;;;3.92;2.30;;;5.40;72.70;;;;;;5098038;28;20042;-61
2021/01/15 08:43:40;;;;;;;4.57;2.50;;;5.40;72.70;;;;;;5099304;28;20039;-61
2021/01/15 08:46:06;;;;;;;7.22;2.95;;;5.40;72.80;;;;;;5100859;28;20020;-61
2021/01/15 08:48:32;;;;;;;3.40;2.10;;;5.50;72.40;;;;;;5106188;28;20037;-61
2021/01/15 08:51:10;;;;;;;4.28;2.20;;;5.50;72.30;;;;;;5105444;28;20027;-61
2021/01/15 08:53:43;;;;;;;6.68;2.45;;;5.40;72.10;;;;;;5105985;28;20072;-61
2021/01/15 08:56:13;;;;;;;6.23;2.90;;;5.40;72.00;;;;;;5105137;28;20035;-61
2021/01/15 08:58:49;;;;;;;3.47;2.35;;;5.40;72.10;;;;;;5107015;28;20035;-61
2021/01/15 09:01:32;;;;;;;6.47;3.08;;;5.40;72.90;;;;;;5102683;28;20055;-61
2021/01/15 09:04:02;;;;;;;5.03;2.70;;;5.30;73.80;;;;;;5092782;28;20055;-61
2021/01/15 09:06:28;;;;;;;5.30;2.63;;;5.30;74.30;;;;;;5091879;28;20035;-60
2021/01/15 09:08:57;;;;;;;5.80;2.85;;;5.30;74.70;;;;;;5091853;28;20119;-60
2021/01/15 09:11:27;;;;;;;4.75;2.85;;;5.20;74.90;;;;;;5092801;28;20032;-61
2021/01/15 09:13:53;;;;;;;5.82;3.28;;;5.20;74.70;;;;;;5100729;28;20063;-61
2021/01/15 09:16:21;;;;;;;9.68;3.08;;;5.20;74.70;;;;;;5096352;28;20047;-61
2021/01/15 09:18:48;;;;;;;7.72;3.60;;;5.20;74.70;;;;;;5106278;28;20037;-61
2021/01/15 09:21:14;;;;;;;7.90;3.67;;;5.20;74.90;;;;;;5105356;28;20023;-62
2021/01/15 09:23:40;;;;;;;9.73;3.80;;;5.20;74.50;;;;;;5105867;28;20038;-62
2021/01/15 09:26:05;;;;;;;5.43;3.40;;;5.20;74.20;;;;;;5102859;28;20379;-61
2021/01/15 09:28:31;;;;;;;11.30;4.13;;;5.20;73.90;;;;;;5109793;28;20122;-61
2021/01/15 09:30:56;;;;;;;7.55;3.40;;;5.20;73.70;;;;;;5098532;28;20020;-61
2021/01/15 09:33:22;;;;;;;7.28;3.42;;;5.20;73.60;;;;;;5100412;28;20127;-61
2021/01/15 09:35:48;;;;;;;5.07;2.80;;;5.20;73.40;;;;;;5105404;28;20035;-61
2021/01/15 09:38:13;;;;;;;6.13;2.85;;;5.30;73.40;;;;;;5101913;28;20043;-61
2021/01/15 09:40:39;;;;;;;5.53;3.08;;;5.20;74.20;;;;;;5105166;28;20032;-61
2021/01/15 09:43:05;;;;;;;6.28;3.15;;;5.20;74.50;;;;;;5102046;28;20031;-62
2021/01/15 09:45:30;;;;;;;5.47;3.33;;;5.20;74.20;;;;;;5109970;28;20042;-61
2021/01/15 09:47:56;;;;;;;4.72;2.25;;;5.20;74.20;;;;;;5110688;28;20379;-69
2021/01/15 09:50:22;;;;;;;6.15;2.70;;;5.20;74.60;;;;;;5111103;28;20114;-62
2021/01/15 09:52:48;;;;;;;6.63;3.33;;;5.20;74.90;;;;;;5105995;28;20467;-61
2021/01/15 09:55:14;;;;;;;5.63;2.58;;;5.20;75.60;;;;;;5095352;28;20399;-61
2021/01/15 09:57:43;;;;;;;11.50;2.65;;;5.10;76.40;;;;;;5097693;28;20026;-61
2021/01/15 10:00:11;;;;;;;5.68;3.13;;;5.10;76.90;;;;;;5095014;28;20024;-61
2021/01/15 10:02:37;;;;;;;5.60;2.72;;;5.10;77.20;;;;;;5105664;28;20023;-61
2021/01/15 10:05:03;;;;;;;8.68;3.22;;;5.10;77.60;;;;;;5109256;28;20038;-61
2021/01/15 10:07:29;;;;;;;6.95;3.28;;;5.00;78.00;;;;;;5109303;28;20085;-61
2021/01/15 10:09:55;;;;;;;4.43;2.75;;;5.00;77.80;;;;;;5108568;28;20031;-61
2021/01/15 10:12:20;;;;;;;6.40;2.65;;;5.00;77.90;;;;;;5109595;28;20527;-60
2021/01/15 10:14:46;;;;;;;6.25;3.35;;;5.00;78.30;;;;;;5110319;28;20026;-60
2021/01/15 10:17:12;;;;;;;5.03;2.72;;;5.00;78.20;;;;;;5108836;28;20026;-62
2021/01/15 10:19:37;;;;;;;6.20;3.05;;;5.00;78.40;;;;;;5101588;28;20052;-60
2021/01/15 10:22:03;;;;;;;5.68;3.00;;;5.00;78.70;;;;;;5096107;28;20383;-61
2021/01/15 10:24:28;;;;;;;7.63;4.10;;;5.00;78.50;;;;;;5093828;28;20036;-61
2021/01/15 10:26:54;;;;;;;5.22;3.00;;;5.00;78.70;;;;;;5109561;28;20078;-61
2021/01/15 10:29:20;;;;;;;10.40;2.70;;;5.00;78.20;;;;;;5104247;28;20539;-60
2021/01/15 10:31:52;;;;;;;4.85;2.75;;;5.10;78.10;;;;;;5104886;28;20032;-61
2021/01/15 10:34:18;;;;;;;4.70;2.53;;;5.00;78.60;;;;;;5105895;28;20028;-61
2021/01/15 10:36:45;;;;;;;10.38;4.40;;;5.10;78.90;;;;;;5111001;28;20040;-61
2021/01/15 10:39:11;;;;;;;7.13;3.30;;;5.00;78.80;;;;;;5111182;28;20024;-61
2021/01/15 10:41:39;;;;;;;6.28;3.15;;;5.00;78.00;;;;;;5115702;28;20024;-61
2021/01/15 10:44:07;;;;;;;5.63;3.00;;;5.10;77.60;;;;;;5112433;28;20391;-62
2021/01/15 10:46:35;;;;;;;5.25;3.25;;;5.10;77.30;;;;;;5114283;28;20028;-61
2021/01/15 10:49:05;;;;;;;7.03;3.65;;;5.10;77.30;;;;;;5113876;28;20024;-61
2021/01/15 10:51:31;;;;;;;4.68;2.53;;;5.10;76.90;;;;;;5115394;27;20024;-61
2021/01/15 10:53:57;;;;;;;10.52;3.95;;;5.10;76.90;;;;;;5110844;28;20027;-62
2021/01/15 10:56:24;;;;;;;8.43;3.38;;;5.10;76.40;;;;;;5111890;28;20030;-62
2021/01/15 10:58:50;;;;;;;7.07;2.80;;;5.10;77.00;;;;;;5111102;28;20031;-61
2021/01/15 11:01:16;;;;;;;7.15;3.17;;;5.10;77.20;;;;;;5110043;28;20027;-61
2021/01/15 11:03:45;;;;;;;7.10;3.72;;;5.10;77.00;;;;;;5110908;27;20364;-61
2021/01/15 11:06:18;;;;;;;7.90;3.80;;;5.20;76.70;;;;;;5110622;27;20047;-61
2021/01/15 11:08:43;;;;;;;5.45;2.65;;;5.20;76.50;;;;;;5112212;28;20035;-62
2021/01/15 11:11:09;;;;;;;6.63;3.67;;;5.20;76.40;;;;;;5113425;28;20386;-61
2021/01/15 11:13:35;;;;;;;9.35;3.53;;;5.20;75.30;;;;;;5107198;28;20031;-61
2021/01/15 11:16:00;;;;;;;5.80;3.85;;;5.20;75.90;;;;;;5110211;28;20061;-62
2021/01/15 11:18:26;;;;;;;6.00;2.75;;;5.20;75.00;;;;;;5110768;28;20435;-61
2021/01/15 11:20:53;;;;;;;5.10;3.05;;;5.20;74.90;;;;;;5108865;28;20016;-62
2021/01/15 11:23:18;;;;;;;5.78;3.25;;;5.20;75.30;;;;;;5105066;28;20036;-59
2021/01/15 11:25:44;;;;;;;7.07;3.75;;;5.20;75.10;;;;;;5107961;28;20123;-60
2021/01/15 11:28:10;;;;;;;7.00;3.38;;;5.20;75.20;;;;;;5101982;28;20077;-60
2021/01/15 11:30:36;;;;;;;6.45;3.60;;;5.30;75.00;;;;;;5102399;28;20081;-61
2021/01/15 11:33:02;;;;;;;9.02;3.95;;;5.30;74.40;;;;;;5100105;28;20356;-60
2021/01/15 11:35:28;;;;;;;7.40;3.65;;;5.30;73.80;;;;;;5099157;28;20035;-61
2021/01/15 11:37:58;;;;;;;8.93;3.72;;;5.30;73.40;;;;;;5094454;28;20043;-61
2021/01/15 11:40:25;;;;;;;9.82;4.05;;;5.30;72.90;;;;;;5097550;28;20535;-60
2021/01/15 11:42:58;;;;;;;8.85;3.67;;;5.40;72.70;;;;;;5106525;28;20054;-61
2021/01/15 11:45:24;;;;;;;6.37;3.63;;;5.40;72.20;;;;;;5096384;28;20032;-61
2021/01/15 11:47:52;;;;;;;6.68;3.33;;;5.40;72.00;;;;;;5108599;28;20273;-60
2021/01/15 11:50:18;;;;;;;7.22;3.65;;;5.50;71.50;;;;;;5110603;28;20118;-61
2021/01/15 11:52:44;;;;;;;8.00;4.00;;;5.50;71.20;;;;;;5106064;28;20032;-61
2021/01/15 11:55:10;;;;;;;8.15;3.92;;;5.50;70.80;;;;;;5108071;27;20077;-60
2021/01/15 11:57:36;;;;;;;8.40;4.40;;;5.50;70.40;;;;;;5110710;28;20055;-60
2021/01/15 12:00:03;;;;;;;6.70;4.22;;;5.60;70.30;;;;;;5097852;28;20055;-60
2021/01/15 12:02:33;;;;;;;8.15;3.75;;;5.60;70.00;;;;;;5096967;28;20419;-61
2021/01/15 12:04:58;;;;;;;6.72;3.83;;;5.60;69.80;;;;;;5093640;28;20036;-61
2021/01/15 12:07:28;;;;;;;7.82;3.85;;;5.60;69.70;;;;;;5104874;28;20125;-60
2021/01/15 12:09:53;;;;;;;6.18;3.38;;;5.60;69.50;;;;;;5102009;28;20040;-61
2021/01/15 12:12:19;;;;;;;7.72;4.47;;;5.60;69.20;;;;;;5102064;28;20048;-60
2021/01/15 12:14:45;;;;;;;7.53;3.70;;;5.70;68.90;;;;;;5107753;28;20028;-61
2021/01/15 12:17:10;;;;;;;7.63;4.22;;;5.70;68.80;;;;;;5107214;28;20024;-61
2021/01/15 12:19:36;;;;;;;8.70;4.38;;;5.70;68.50;;;;;;5105521;28;20035;-61
2021/01/15 12:22:02;;;;;;;7.90;4.22;;;5.70;68.40;;;;;;5109721;28;20477;-62
2021/01/15 12:24:27;;;;;;;9.65;4.82;;;5.70;68.40;;;;;;5110647;28;20040;-61
2021/01/15 12:26:58;;;;;;;7.82;4.07;;;5.70;68.30;;;;;;5109247;28;20061;-60
2021/01/15 12:29:25;;;;;;;7.72;4.13;;;5.70;68.20;;;;;;5108478;28;20127;-60
2021/01/15 12:31:54;;;;;;;8.80;3.80;;;5.80;68.10;;;;;;5101801;28;20031;-61
2021/01/15 12:34:19;;;;;;;9.27;3.53;;;5.80;68.00;;;;;;5099755;28;20024;-59
2021/01/15 12:36:45;;;;;;;7.03;4.32;;;5.80;67.70;;;;;;5102075;28;20385;-60
2021/01/15 12:39:11;;;;;;;8.13;4.10;;;5.80;67.50;;;;;;5098284;28;20069;-61
2021/01/15 12:41:36;;;;;;;7.75;4.18;;;5.80;67.30;;;;;;5106880;28;20023;-60
2021/01/15 12:44:02;;;;;;;8.05;4.15;;;5.90;67.30;;;;;;5112904;28;20032;-60
2021/01/15 12:46:29;;;;;;;10.43;4.20;;;5.90;67.20;;;;;;5112543;28;20297;-60
2021/01/15 12:48:55;;;;;;;7.97;4.15;;;5.90;67.20;;;;;;5112652;28;20043;-60
2021/01/15 12:51:20;;;;;;;8.65;4.18;;;6.00;67.00;;;;;;5112247;28;20073;-60
2021/01/15 12:53:46;;;;;;;9.00;4.20;;;6.00;66.90;;;;;;5113157;28;20394;-60
2021/01/15 12:56:16;;;;;;;9.25;4.72;;;6.00;66.90;;;;;;5112798;28;20024;-61
2021/01/15 12:58:41;;;;;;;9.90;4.40;;;6.00;66.80;;;;;;5111686;28;20031;-60
2021/01/15 13:01:07;;;;;;;8.02;3.92;;;6.10;66.80;;;;;;5109621;28;20040;-60
2021/01/15 13:03:33;;;;;;;9.52;4.60;;;6.10;66.70;;;;;;5091542;28;20016;-60
2021/01/15 13:05:58;;;;;;;12.00;4.50;;;6.10;66.60;;;;;;5089717;28;20376;-60